sensor_id;sensor_type;location;lat;lon;timestamp;P1;durP1;ratioP1;P2;durP2;ratioP2
52035;SDS011;38046;49.448;32.074;2023-04-15T00:02:00;4.75;;;3.67;;
52035;SDS011;38046;49.448;32.074;2023-04-15T00:04:26;4.38;;;3.42;;
52035;SDS011;38046;49.448;32.074;2023-04-15T00:06:52;4.95;;;3.95;;
52035;SDS011;38046;49.448;32.074;2023-04-15T00:09:19;4.03;;;3.42;;
52035;SDS011;38046;49.448;32.074;2023-04-15T00:11:45;4.00;;;3.60;;
52035;SDS011;38046;49.448;32.074;2023-04-15T00:14:11;4.20;;;3.33;;
52035;SDS011;38046;49.448;32.074;2023-04-15T00:16:37;4.50;;;3.70;;
52035;SDS011;38046;49.448;32.074;2023-04-15T00:19:03;4.70;;;3.60;;
52035;SDS011;38046;49.448;32.074;2023-04-15T00:21:29;4.43;;;3.72;;
52035;SDS011;38046;49.448;32.074;2023-04-15T00:23:55;4.60;;;3.42;;
52035;SDS011;38046;49.448;32.074;2023-04-15T00:26:20;4.55;;;3.78;;
52035;SDS011;38046;49.448;32.074;2023-04-15T00:28:46;4.93;;;3.85;;
52035;SDS011;38046;49.448;32.074;2023-04-15T00:31:12;4.18;;;3.30;;
52035;SDS011;38046;49.448;32.074;2023-04-15T00:33:38;3.97;;;3.53;;
52035;SDS011;38046;49.448;32.074;2023-04-15T00:36:05;5.13;;;3.72;;
52035;SDS011;38046;49.448;32.074;2023-04-15T00:38:30;4.13;;;3.45;;
52035;SDS011;38046;49.448;32.074;2023-04-15T00:40:56;3.90;;;3.35;;
52035;SDS011;38046;49.448;32.074;2023-04-15T00:43:22;4.70;;;3.30;;
52035;SDS011;38046;49.448;32.074;2023-04-15T00:45:48;4.18;;;3.60;;
52035;SDS011;38046;49.448;32.074;2023-04-15T00:48:17;4.53;;;3.65;;
52035;SDS011;38046;49.448;32.074;2023-04-15T00:50:44;5.03;;;3.28;;
52035;SDS011;38046;49.448;32.074;2023-04-15T00:53:10;3.53;;;3.20;;
52035;SDS011;38046;49.448;32.074;2023-04-15T00:55:36;4.72;;;3.95;;
52035;SDS011;38046;49.448;32.074;2023-04-15T00:58:02;4.25;;;3.40;;
52035;SDS011;38046;49.448;32.074;2023-04-15T01:00:27;4.25;;;2.95;;
52035;SDS011;38046;49.448;32.074;2023-04-15T01:02:54;3.33;;;2.97;;
52035;SDS011;38046;49.448;32.074;2023-04-15T01:05:20;3.28;;;2.97;;
52035;SDS011;38046;49.448;32.074;2023-04-15T01:07:46;2.95;;;2.65;;
52035;SDS011;38046;49.448;32.074;2023-04-15T01:10:12;3.00;;;2.70;;
52035;SDS011;38046;49.448;32.074;2023-04-15T01:12:38;2.95;;;2.58;;
52035;SDS011;38046;49.448;32.074;2023-04-15T01:15:04;2.50;;;2.30;;
52035;SDS011;38046;49.448;32.074;2023-04-15T01:17:30;2.38;;;2.17;;
52035;SDS011;38046;49.448;32.074;2023-04-15T01:19:56;2.30;;;2.10;;
52035;SDS011;38046;49.448;32.074;2023-04-15T01:22:23;2.60;;;2.40;;
52035;SDS011;38046;49.448;32.074;2023-04-15T01:25:00;2.30;;;2.10;;
52035;SDS011;38046;49.448;32.074;2023-04-15T01:27:41;2.63;;;2.42;;
52035;SDS011;38046;49.448;32.074;2023-04-15T01:30:08;2.92;;;2.53;;
52035;SDS011;38046;49.448;32.074;2023-04-15T01:32:34;2.55;;;2.35;;
52035;SDS011;38046;49.448;32.074;2023-04-15T01:35:00;2.60;;;2.13;;
52035;SDS011;38046;49.448;32.074;2023-04-15T01:37:26;2.78;;;2.53;;
52035;SDS011;38046;49.448;32.074;2023-04-15T01:39:53;3.40;;;2.58;;
52035;SDS011;38046;49.448;32.074;2023-04-15T01:42:20;3.30;;;2.80;;
52035;SDS011;38046;49.448;32.074;2023-04-15T01:44:45;4.35;;;2.60;;
52035;SDS011;38046;49.448;32.074;2023-04-15T01:47:11;2.40;;;2.20;;
52035;SDS011;38046;49.448;32.074;2023-04-15T01:49:38;3.00;;;2.70;;
52035;SDS011;38046;49.448;32.074;2023-04-15T01:52:03;2.83;;;2.55;;
52035;SDS011;38046;49.448;32.074;2023-04-15T01:54:29;4.50;;;2.70;;
52035;SDS011;38046;49.448;32.074;2023-04-15T01:56:55;3.08;;;2.50;;
52035;SDS011;38046;49.448;32.074;2023-04-15T01:59:21;2.97;;;2.67;;
52035;SDS011;38046;49.448;32.074;2023-04-15T02:01:47;3.20;;;2.65;;
52035;SDS011;38046;49.448;32.074;2023-04-15T02:04:13;2.65;;;2.30;;
52035;SDS011;38046;49.448;32.074;2023-04-15T02:06:41;2.60;;;2.40;;
52035;SDS011;38046;49.448;32.074;2023-04-15T02:09:08;3.30;;;2.50;;
52035;SDS011;38046;49.448;32.074;2023-04-15T02:11:34;2.42;;;2.22;;
52035;SDS011;38046;49.448;32.074;2023-04-15T02:14:01;2.97;;;2.65;;
52035;SDS011;38046;49.448;32.074;2023-04-15T02:16:29;2.80;;;2.60;;
52035;SDS011;38046;49.448;32.074;2023-04-15T02:18:56;2.60;;;2.40;;
52035;SDS011;38046;49.448;32.074;2023-04-15T02:21:21;2.42;;;2.22;;
52035;SDS011;38046;49.448;32.074;2023-04-15T02:23:47;3.50;;;2.78;;
52035;SDS011;38046;49.448;32.074;2023-04-15T02:26:13;2.42;;;2.25;;
52035;SDS011;38046;49.448;32.074;2023-04-15T02:28:39;2.58;;;2.38;;
52035;SDS011;38046;49.448;32.074;2023-04-15T02:31:05;2.97;;;2.67;;
52035;SDS011;38046;49.448;32.074;2023-04-15T02:33:31;2.85;;;2.53;;
52035;SDS011;38046;49.448;32.074;2023-04-15T02:35:57;3.05;;;2.60;;
52035;SDS011;38046;49.448;32.074;2023-04-15T02:38:23;2.60;;;2.40;;
52035;SDS011;38046;49.448;32.074;2023-04-15T02:40:49;2.40;;;2.20;;
52035;SDS011;38046;49.448;32.074;2023-04-15T02:43:15;2.50;;;2.30;;
52035;SDS011;38046;49.448;32.074;2023-04-15T02:45:41;2.88;;;2.50;;
52035;SDS011;38046;49.448;32.074;2023-04-15T02:48:07;2.55;;;2.35;;
52035;SDS011;38046;49.448;32.074;2023-04-15T02:50:33;3.80;;;2.80;;
52035;SDS011;38046;49.448;32.074;2023-04-15T02:52:59;2.60;;;2.40;;
52035;SDS011;38046;49.448;32.074;2023-04-15T02:55:26;3.05;;;2.63;;
52035;SDS011;38046;49.448;32.074;2023-04-15T02:57:52;3.35;;;2.75;;
52035;SDS011;38046;49.448;32.074;2023-04-15T03:00:18;2.55;;;2.35;;
52035;SDS011;38046;49.448;32.074;2023-04-15T03:02:44;2.70;;;2.50;;
52035;SDS011;38046;49.448;32.074;2023-04-15T03:05:11;3.08;;;2.60;;
52035;SDS011;38046;49.448;32.074;2023-04-15T03:07:37;2.95;;;2.30;;
52035;SDS011;38046;49.448;32.074;2023-04-15T03:10:05;3.53;;;2.50;;
52035;SDS011;38046;49.448;32.074;2023-04-15T03:12:31;2.88;;;2.63;;
52035;SDS011;38046;49.448;32.074;2023-04-15T03:14:57;2.67;;;2.47;;
52035;SDS011;38046;49.448;32.074;2023-04-15T03:17:24;2.58;;;2.28;;
52035;SDS011;38046;49.448;32.074;2023-04-15T03:19:50;2.95;;;2.20;;
52035;SDS011;38046;49.448;32.074;2023-04-15T03:22:15;2.40;;;2.20;;
52035;SDS011;38046;49.448;32.074;2023-04-15T03:24:41;2.72;;;2.53;;
52035;SDS011;38046;49.448;32.074;2023-04-15T03:27:06;2.88;;;2.50;;
52035;SDS011;38046;49.448;32.074;2023-04-15T03:29:32;3.08;;;2.53;;
52035;SDS011;38046;49.448;32.074;2023-04-15T03:31:58;2.53;;;2.33;;
52035;SDS011;38046;49.448;32.074;2023-04-15T03:34:24;2.55;;;2.35;;
52035;SDS011;38046;49.448;32.074;2023-04-15T03:36:49;2.70;;;2.50;;
52035;SDS011;38046;49.448;32.074;2023-04-15T03:39:15;2.70;;;2.50;;
52035;SDS011;38046;49.448;32.074;2023-04-15T03:41:41;3.38;;;2.85;;
52035;SDS011;38046;49.448;32.074;2023-04-15T03:44:06;3.85;;;3.00;;
52035;SDS011;38046;49.448;32.074;2023-04-15T03:46:32;3.53;;;2.80;;
52035;SDS011;38046;49.448;32.074;2023-04-15T03:48:58;3.58;;;2.50;;
52035;SDS011;38046;49.448;32.074;2023-04-15T03:51:23;3.75;;;3.10;;
52035;SDS011;38046;49.448;32.074;2023-04-15T03:53:50;3.90;;;3.08;;
52035;SDS011;38046;49.448;32.074;2023-04-15T03:56:15;3.58;;;3.20;;
52035;SDS011;38046;49.448;32.074;2023-04-15T03:58:41;3.50;;;3.00;;
52035;SDS011;38046;49.448;32.074;2023-04-15T04:01:07;3.60;;;3.30;;
52035;SDS011;38046;49.448;32.074;2023-04-15T04:03:32;4.28;;;3.38;;
52035;SDS011;38046;49.448;32.074;2023-04-15T04:05:58;4.75;;;3.67;;
52035;SDS011;38046;49.448;32.074;2023-04-15T04:08:24;4.60;;;3.53;;
52035;SDS011;38046;49.448;32.074;2023-04-15T04:10:51;4.22;;;3.50;;
52035;SDS011;38046;49.448;32.074;2023-04-15T04:13:16;4.22;;;3.80;;
52035;SDS011;38046;49.448;32.074;2023-04-15T04:15:42;4.13;;;3.50;;
52035;SDS011;38046;49.448;32.074;2023-04-15T04:18:08;3.72;;;3.28;;
52035;SDS011;38046;49.448;32.074;2023-04-15T04:20:33;4.97;;;3.75;;
52035;SDS011;38046;49.448;32.074;2023-04-15T04:22:59;3.72;;;3.20;;
52035;SDS011;38046;49.448;32.074;2023-04-15T04:25:25;4.28;;;3.35;;
52035;SDS011;38046;49.448;32.074;2023-04-15T04:27:51;3.08;;;2.78;;
52035;SDS011;38046;49.448;32.074;2023-04-15T04:30:17;3.00;;;2.72;;
52035;SDS011;38046;49.448;32.074;2023-04-15T04:32:42;3.58;;;2.83;;
52035;SDS011;38046;49.448;32.074;2023-04-15T04:35:08;4.10;;;2.70;;
52035;SDS011;38046;49.448;32.074;2023-04-15T04:37:34;3.55;;;2.83;;
52035;SDS011;38046;49.448;32.074;2023-04-15T04:39:59;3.10;;;2.50;;
52035;SDS011;38046;49.448;32.074;2023-04-15T04:42:25;4.00;;;2.97;;
52035;SDS011;38046;49.448;32.074;2023-04-15T04:44:51;3.10;;;2.50;;
52035;SDS011;38046;49.448;32.074;2023-04-15T04:47:16;3.83;;;2.53;;
52035;SDS011;38046;49.448;32.074;2023-04-15T04:49:42;3.22;;;2.70;;
52035;SDS011;38046;49.448;32.074;2023-04-15T04:52:08;3.08;;;2.80;;
52035;SDS011;38046;49.448;32.074;2023-04-15T04:54:33;2.75;;;2.50;;
52035;SDS011;38046;49.448;32.074;2023-04-15T04:56:59;3.20;;;2.90;;
52035;SDS011;38046;49.448;32.074;2023-04-15T04:59:25;2.67;;;2.47;;
52035;SDS011;38046;49.448;32.074;2023-04-15T05:01:51;3.40;;;2.80;;
52035;SDS011;38046;49.448;32.074;2023-04-15T05:04:17;3.75;;;3.28;;
52035;SDS011;38046;49.448;32.074;2023-04-15T05:06:42;4.45;;;3.47;;
52035;SDS011;38046;49.448;32.074;2023-04-15T05:09:08;5.97;;;3.65;;
52035;SDS011;38046;49.448;32.074;2023-04-15T05:11:33;5.50;;;3.63;;
52035;SDS011;38046;49.448;32.074;2023-04-15T05:13:59;9.23;;;3.47;;
52035;SDS011;38046;49.448;32.074;2023-04-15T05:16:26;3.75;;;3.22;;
52035;SDS011;38046;49.448;32.074;2023-04-15T05:18:52;4.30;;;3.78;;
52035;SDS011;38046;49.448;32.074;2023-04-15T05:21:17;4.55;;;3.80;;
52035;SDS011;38046;49.448;32.074;2023-04-15T05:23:44;5.00;;;3.97;;
52035;SDS011;38046;49.448;32.074;2023-04-15T05:26:10;6.38;;;4.10;;
52035;SDS011;38046;49.448;32.074;2023-04-15T05:28:35;4.45;;;3.70;;
52035;SDS011;38046;49.448;32.074;2023-04-15T05:31:01;4.78;;;4.00;;
52035;SDS011;38046;49.448;32.074;2023-04-15T05:33:27;3.85;;;3.45;;
52035;SDS011;38046;49.448;32.074;2023-04-15T05:35:53;5.28;;;3.97;;
52035;SDS011;38046;49.448;32.074;2023-04-15T05:38:19;5.75;;;4.00;;
52035;SDS011;38046;49.448;32.074;2023-04-15T05:40:45;5.53;;;3.85;;
52035;SDS011;38046;49.448;32.074;2023-04-15T05:43:11;4.03;;;3.63;;
52035;SDS011;38046;49.448;32.074;2023-04-15T05:45:36;5.32;;;4.13;;
52035;SDS011;38046;49.448;32.074;2023-04-15T05:48:02;4.45;;;3.88;;
52035;SDS011;38046;49.448;32.074;2023-04-15T05:50:28;5.45;;;4.63;;
52035;SDS011;38046;49.448;32.074;2023-04-15T05:52:53;4.32;;;3.92;;
52035;SDS011;38046;49.448;32.074;2023-04-15T05:55:20;4.95;;;4.40;;
52035;SDS011;38046;49.448;32.074;2023-04-15T05:57:46;5.85;;;4.72;;
52035;SDS011;38046;49.448;32.074;2023-04-15T06:00:12;4.85;;;4.32;;
52035;SDS011;38046;49.448;32.074;2023-04-15T06:02:38;6.25;;;4.65;;
52035;SDS011;38046;49.448;32.074;2023-04-15T06:05:04;4.90;;;4.40;;
52035;SDS011;38046;49.448;32.074;2023-04-15T06:07:33;4.93;;;4.22;;
52035;SDS011;38046;49.448;32.074;2023-04-15T06:10:01;5.55;;;4.53;;
52035;SDS011;38046;49.448;32.074;2023-04-15T06:12:27;6.28;;;4.90;;
52035;SDS011;38046;49.448;32.074;2023-04-15T06:14:53;6.05;;;5.07;;
52035;SDS011;38046;49.448;32.074;2023-04-15T06:17:19;6.20;;;5.15;;
52035;SDS011;38046;49.448;32.074;2023-04-15T06:19:44;6.43;;;5.10;;
52035;SDS011;38046;49.448;32.074;2023-04-15T06:22:10;5.55;;;4.72;;
52035;SDS011;38046;49.448;32.074;2023-04-15T06:24:35;5.40;;;4.50;;
52035;SDS011;38046;49.448;32.074;2023-04-15T06:27:01;5.22;;;4.28;;
52035;SDS011;38046;49.448;32.074;2023-04-15T06:29:27;6.47;;;4.97;;
52035;SDS011;38046;49.448;32.074;2023-04-15T06:31:53;5.90;;;5.00;;
52035;SDS011;38046;49.448;32.074;2023-04-15T06:34:20;6.57;;;5.22;;
52035;SDS011;38046;49.448;32.074;2023-04-15T06:36:48;6.47;;;5.32;;
52035;SDS011;38046;49.448;32.074;2023-04-15T06:39:14;6.90;;;4.70;;
52035;SDS011;38046;49.448;32.074;2023-04-15T06:41:40;5.82;;;4.85;;
52035;SDS011;38046;49.448;32.074;2023-04-15T06:44:05;5.57;;;4.43;;
52035;SDS011;38046;49.448;32.074;2023-04-15T06:46:31;6.82;;;5.25;;
52035;SDS011;38046;49.448;32.074;2023-04-15T06:48:57;4.85;;;3.97;;
52035;SDS011;38046;49.448;32.074;2023-04-15T06:51:22;6.30;;;4.15;;
52035;SDS011;38046;49.448;32.074;2023-04-15T06:53:48;7.32;;;4.78;;
52035;SDS011;38046;49.448;32.074;2023-04-15T06:56:14;5.70;;;4.43;;
52035;SDS011;38046;49.448;32.074;2023-04-15T06:58:39;5.30;;;4.10;;
52035;SDS011;38046;49.448;32.074;2023-04-15T07:01:05;4.90;;;3.90;;
52035;SDS011;38046;49.448;32.074;2023-04-15T07:03:31;5.05;;;3.95;;
52035;SDS011;38046;49.448;32.074;2023-04-15T07:05:57;4.07;;;3.67;;
52035;SDS011;38046;49.448;32.074;2023-04-15T07:08:22;5.78;;;4.60;;
52035;SDS011;38046;49.448;32.074;2023-04-15T07:10:49;5.68;;;4.57;;
52035;SDS011;38046;49.448;32.074;2023-04-15T07:13:15;6.38;;;4.47;;
52035;SDS011;38046;49.448;32.074;2023-04-15T07:15:41;5.28;;;4.40;;
52035;SDS011;38046;49.448;32.074;2023-04-15T07:18:07;5.05;;;4.55;;
52035;SDS011;38046;49.448;32.074;2023-04-15T07:20:33;7.22;;;5.35;;
52035;SDS011;38046;49.448;32.074;2023-04-15T07:22:59;6.13;;;5.05;;
52035;SDS011;38046;49.448;32.074;2023-04-15T07:25:24;6.50;;;4.75;;
52035;SDS011;38046;49.448;32.074;2023-04-15T07:27:51;5.38;;;4.60;;
52035;SDS011;38046;49.448;32.074;2023-04-15T07:30:17;7.65;;;4.97;;
52035;SDS011;38046;49.448;32.074;2023-04-15T07:32:42;5.78;;;4.82;;
52035;SDS011;38046;49.448;32.074;2023-04-15T07:35:08;6.45;;;5.43;;
52035;SDS011;38046;49.448;32.074;2023-04-15T07:37:34;6.32;;;5.00;;
52035;SDS011;38046;49.448;32.074;2023-04-15T07:40:00;6.95;;;5.35;;
52035;SDS011;38046;49.448;32.074;2023-04-15T07:42:28;5.22;;;4.38;;
52035;SDS011;38046;49.448;32.074;2023-04-15T07:44:54;7.15;;;5.60;;
52035;SDS011;38046;49.448;32.074;2023-04-15T07:47:20;7.13;;;5.35;;
52035;SDS011;38046;49.448;32.074;2023-04-15T07:49:46;6.80;;;5.28;;
52035;SDS011;38046;49.448;32.074;2023-04-15T07:52:11;6.93;;;5.68;;
52035;SDS011;38046;49.448;32.074;2023-04-15T07:54:37;6.43;;;5.10;;
52035;SDS011;38046;49.448;32.074;2023-04-15T07:57:03;5.57;;;4.95;;
52035;SDS011;38046;49.448;32.074;2023-04-15T07:59:29;6.55;;;5.47;;
52035;SDS011;38046;49.448;32.074;2023-04-15T08:01:57;7.00;;;5.43;;
52035;SDS011;38046;49.448;32.074;2023-04-15T08:04:23;6.93;;;5.07;;
52035;SDS011;38046;49.448;32.074;2023-04-15T08:06:49;6.40;;;5.20;;
52035;SDS011;38046;49.448;32.074;2023-04-15T08:09:15;5.72;;;4.93;;
52035;SDS011;38046;49.448;32.074;2023-04-15T08:11:40;5.53;;;4.72;;
52035;SDS011;38046;49.448;32.074;2023-04-15T08:14:06;7.25;;;5.63;;
52035;SDS011;38046;49.448;32.074;2023-04-15T08:16:32;5.97;;;5.10;;
52035;SDS011;38046;49.448;32.074;2023-04-15T08:18:57;6.22;;;5.18;;
52035;SDS011;38046;49.448;32.074;2023-04-15T08:21:23;6.68;;;5.65;;
52035;SDS011;38046;49.448;32.074;2023-04-15T08:23:49;6.10;;;5.50;;
52035;SDS011;38046;49.448;32.074;2023-04-15T08:26:16;6.00;;;5.40;;
52035;SDS011;38046;49.448;32.074;2023-04-15T08:28:43;7.57;;;6.03;;
52035;SDS011;38046;49.448;32.074;2023-04-15T08:31:10;7.47;;;6.10;;
52035;SDS011;38046;49.448;32.074;2023-04-15T08:33:40;7.20;;;6.13;;
52035;SDS011;38046;49.448;32.074;2023-04-15T08:36:06;8.07;;;6.22;;
52035;SDS011;38046;49.448;32.074;2023-04-15T08:38:32;8.25;;;6.60;;
52035;SDS011;38046;49.448;32.074;2023-04-15T08:40:59;7.97;;;6.50;;
52035;SDS011;38046;49.448;32.074;2023-04-15T08:43:27;7.68;;;5.97;;
52035;SDS011;38046;49.448;32.074;2023-04-15T08:46:02;7.85;;;5.65;;
52035;SDS011;38046;49.448;32.074;2023-04-15T08:48:31;6.97;;;5.80;;
52035;SDS011;38046;49.448;32.074;2023-04-15T08:50:59;7.35;;;5.95;;
52035;SDS011;38046;49.448;32.074;2023-04-15T08:53:27;7.72;;;5.50;;
52035;SDS011;38046;49.448;32.074;2023-04-15T08:55:53;6.47;;;5.25;;
52035;SDS011;38046;49.448;32.074;2023-04-15T08:58:21;6.60;;;4.95;;
52035;SDS011;38046;49.448;32.074;2023-04-15T09:00:49;6.70;;;5.53;;
52035;SDS011;38046;49.448;32.074;2023-04-15T09:03:15;6.93;;;5.43;;
52035;SDS011;38046;49.448;32.074;2023-04-15T09:05:41;6.90;;;4.72;;
52035;SDS011;38046;49.448;32.074;2023-04-15T09:08:07;5.95;;;4.60;;
52035;SDS011;38046;49.448;32.074;2023-04-15T09:10:33;5.82;;;4.53;;
52035;SDS011;38046;49.448;32.074;2023-04-15T09:12:59;7.20;;;5.60;;
52035;SDS011;38046;49.448;32.074;2023-04-15T09:15:26;7.55;;;5.97;;
52035;SDS011;38046;49.448;32.074;2023-04-15T09:17:53;6.38;;;5.68;;
52035;SDS011;38046;49.448;32.074;2023-04-15T09:20:20;6.68;;;5.55;;
52035;SDS011;38046;49.448;32.074;2023-04-15T09:22:46;9.02;;;6.05;;
52035;SDS011;38046;49.448;32.074;2023-04-15T09:27:52;6.82;;;5.40;;
52035;SDS011;38046;49.448;32.074;2023-04-15T09:30:19;6.75;;;5.68;;
52035;SDS011;38046;49.448;32.074;2023-04-15T09:32:57;6.80;;;4.85;;
52035;SDS011;38046;49.448;32.074;2023-04-15T09:35:25;5.88;;;4.72;;
52035;SDS011;38046;49.448;32.074;2023-04-15T09:38:04;6.47;;;5.32;;
52035;SDS011;38046;49.448;32.074;2023-04-15T09:40:40;6.18;;;5.07;;
52035;SDS011;38046;49.448;32.074;2023-04-15T09:43:07;6.80;;;4.85;;
52035;SDS011;38046;49.448;32.074;2023-04-15T09:45:34;7.32;;;5.20;;
52035;SDS011;38046;49.448;32.074;2023-04-15T09:50:47;6.13;;;5.22;;
52035;SDS011;38046;49.448;32.074;2023-04-15T09:53:17;7.20;;;5.07;;
52035;SDS011;38046;49.448;32.074;2023-04-15T09:55:44;5.32;;;4.55;;
52035;SDS011;38046;49.448;32.074;2023-04-15T09:58:17;6.22;;;4.75;;
52035;SDS011;38046;49.448;32.074;2023-04-15T10:00:44;6.55;;;5.10;;
52035;SDS011;38046;49.448;32.074;2023-04-15T10:03:13;5.70;;;4.15;;
52035;SDS011;38046;49.448;32.074;2023-04-15T10:05:51;5.13;;;4.40;;
52035;SDS011;38046;49.448;32.074;2023-04-15T10:08:19;5.47;;;4.50;;
52035;SDS011;38046;49.448;32.074;2023-04-15T10:10:51;5.68;;;4.60;;
52035;SDS011;38046;49.448;32.074;2023-04-15T10:13:19;5.85;;;4.75;;
52035;SDS011;38046;49.448;32.074;2023-04-15T10:18:39;7.03;;;4.95;;
52035;SDS011;38046;49.448;32.074;2023-04-15T10:21:09;5.88;;;4.85;;
52035;SDS011;38046;49.448;32.074;2023-04-15T10:23:37;5.88;;;4.75;;
52035;SDS011;38046;49.448;32.074;2023-04-15T10:26:04;6.43;;;4.75;;
52035;SDS011;38046;49.448;32.074;2023-04-15T10:28:30;7.53;;;5.30;;
52035;SDS011;38046;49.448;32.074;2023-04-15T10:30:56;5.40;;;4.65;;
52035;SDS011;38046;49.448;32.074;2023-04-15T10:33:24;6.22;;;4.65;;
52035;SDS011;38046;49.448;32.074;2023-04-15T10:35:51;6.40;;;4.90;;
52035;SDS011;38046;49.448;32.074;2023-04-15T10:38:38;5.75;;;4.35;;
52035;SDS011;38046;49.448;32.074;2023-04-15T10:41:13;6.07;;;4.70;;
52035;SDS011;38046;49.448;32.074;2023-04-15T10:43:49;6.88;;;4.70;;
52035;SDS011;38046;49.448;32.074;2023-04-15T10:46:23;5.63;;;4.88;;
52035;SDS011;38046;49.448;32.074;2023-04-15T10:51:40;5.28;;;4.50;;
52035;SDS011;38046;49.448;32.074;2023-04-15T10:54:14;6.00;;;4.57;;
52035;SDS011;38046;49.448;32.074;2023-04-15T10:59:29;5.35;;;4.22;;
52035;SDS011;38046;49.448;32.074;2023-04-15T11:01:59;7.25;;;4.85;;
52035;SDS011;38046;49.448;32.074;2023-04-15T11:12:51;6.20;;;4.90;;
52035;SDS011;38046;49.448;32.074;2023-04-15T11:15:34;5.50;;;4.43;;
52035;SDS011;38046;49.448;32.074;2023-04-15T11:20:42;6.82;;;4.55;;
52035;SDS011;38046;49.448;32.074;2023-04-15T11:23:16;6.00;;;4.53;;
52035;SDS011;38046;49.448;32.074;2023-04-15T11:25:43;6.57;;;4.50;;
52035;SDS011;38046;49.448;32.074;2023-04-15T11:28:09;6.80;;;4.57;;
52035;SDS011;38046;49.448;32.074;2023-04-15T11:30:36;5.47;;;4.57;;
52035;SDS011;38046;49.448;32.074;2023-04-15T11:33:04;5.78;;;4.72;;
52035;SDS011;38046;49.448;32.074;2023-04-15T11:35:32;4.95;;;4.40;;
52035;SDS011;38046;49.448;32.074;2023-04-15T11:38:01;6.82;;;4.55;;
52035;SDS011;38046;49.448;32.074;2023-04-15T11:40:32;5.93;;;4.53;;
52035;SDS011;38046;49.448;32.074;2023-04-15T11:43:18;6.05;;;5.13;;
52035;SDS011;38046;49.448;32.074;2023-04-15T11:45:49;6.25;;;4.97;;
52035;SDS011;38046;49.448;32.074;2023-04-15T11:48:15;5.88;;;4.50;;
52035;SDS011;38046;49.448;32.074;2023-04-15T11:50:42;6.57;;;4.45;;
52035;SDS011;38046;49.448;32.074;2023-04-15T11:53:11;5.53;;;4.47;;
52035;SDS011;38046;49.448;32.074;2023-04-15T11:55:41;5.53;;;4.20;;
52035;SDS011;38046;49.448;32.074;2023-04-15T11:58:18;5.60;;;4.03;;
52035;SDS011;38046;49.448;32.074;2023-04-15T12:00:48;5.15;;;4.03;;
52035;SDS011;38046;49.448;32.074;2023-04-15T12:03:25;5.38;;;4.35;;
52035;SDS011;38046;49.448;32.074;2023-04-15T12:08:51;4.88;;;4.32;;
52035;SDS011;38046;49.448;32.074;2023-04-15T12:11:17;7.97;;;4.70;;
52035;SDS011;38046;49.448;32.074;2023-04-15T12:13:48;5.80;;;4.38;;
52035;SDS011;38046;49.448;32.074;2023-04-15T12:16:18;4.97;;;4.40;;
52035;SDS011;38046;49.448;32.074;2023-04-15T12:18:44;4.88;;;4.18;;
52035;SDS011;38046;49.448;32.074;2023-04-15T12:21:37;4.72;;;4.03;;
52035;SDS011;38046;49.448;32.074;2023-04-15T12:24:06;6.55;;;4.50;;
52035;SDS011;38046;49.448;32.074;2023-04-15T12:26:36;5.65;;;4.78;;
52035;SDS011;38046;49.448;32.074;2023-04-15T12:29:07;5.82;;;5.05;;
52035;SDS011;38046;49.448;32.074;2023-04-15T12:31:35;4.80;;;4.30;;
52035;SDS011;38046;49.448;32.074;2023-04-15T12:34:01;4.97;;;4.47;;
52035;SDS011;38046;49.448;32.074;2023-04-15T12:36:27;4.93;;;4.15;;
52035;SDS011;38046;49.448;32.074;2023-04-15T12:38:57;6.97;;;4.68;;
52035;SDS011;38046;49.448;32.074;2023-04-15T12:41:22;5.82;;;4.55;;
52035;SDS011;38046;49.448;32.074;2023-04-15T12:43:48;7.78;;;5.50;;
52035;SDS011;38046;49.448;32.074;2023-04-15T12:46:14;6.50;;;5.20;;
52035;SDS011;38046;49.448;32.074;2023-04-15T12:48:40;7.88;;;5.65;;
52035;SDS011;38046;49.448;32.074;2023-04-15T12:51:06;6.55;;;4.90;;
52035;SDS011;38046;49.448;32.074;2023-04-15T12:53:32;6.32;;;4.90;;
52035;SDS011;38046;49.448;32.074;2023-04-15T12:55:58;6.72;;;4.95;;
52035;SDS011;38046;49.448;32.074;2023-04-15T12:58:25;5.75;;;4.65;;
52035;SDS011;38046;49.448;32.074;2023-04-15T13:00:51;6.88;;;5.15;;
52035;SDS011;38046;49.448;32.074;2023-04-15T13:03:17;6.57;;;5.22;;
52035;SDS011;38046;49.448;32.074;2023-04-15T13:05:42;5.82;;;4.75;;
52035;SDS011;38046;49.448;32.074;2023-04-15T13:08:08;6.22;;;5.30;;
52035;SDS011;38046;49.448;32.074;2023-04-15T13:10:34;8.55;;;4.93;;
52035;SDS011;38046;49.448;32.074;2023-04-15T13:13:03;6.63;;;5.13;;
52035;SDS011;38046;49.448;32.074;2023-04-15T13:15:29;6.57;;;4.93;;
52035;SDS011;38046;49.448;32.074;2023-04-15T13:17:55;8.18;;;5.25;;
52035;SDS011;38046;49.448;32.074;2023-04-15T13:20:21;7.72;;;5.28;;
52035;SDS011;38046;49.448;32.074;2023-04-15T13:22:50;5.18;;;4.53;;
52035;SDS011;38046;49.448;32.074;2023-04-15T13:25:17;6.10;;;5.18;;
52035;SDS011;38046;49.448;32.074;2023-04-15T13:27:42;6.43;;;5.63;;
52035;SDS011;38046;49.448;32.074;2023-04-15T13:30:08;6.82;;;5.30;;
52035;SDS011;38046;49.448;32.074;2023-04-15T13:32:34;5.93;;;5.10;;
52035;SDS011;38046;49.448;32.074;2023-04-15T13:35:00;7.55;;;5.43;;
52035;SDS011;38046;49.448;32.074;2023-04-15T13:37:26;5.82;;;5.22;;
52035;SDS011;38046;49.448;32.074;2023-04-15T13:39:52;6.95;;;5.53;;
52035;SDS011;38046;49.448;32.074;2023-04-15T13:42:19;5.93;;;5.10;;
52035;SDS011;38046;49.448;32.074;2023-04-15T13:44:45;5.97;;;5.28;;
52035;SDS011;38046;49.448;32.074;2023-04-15T13:47:11;6.78;;;4.80;;
52035;SDS011;38046;49.448;32.074;2023-04-15T13:49:38;6.75;;;5.55;;
52035;SDS011;38046;49.448;32.074;2023-04-15T13:52:04;6.82;;;5.25;;
52035;SDS011;38046;49.448;32.074;2023-04-15T13:54:30;6.50;;;5.50;;
52035;SDS011;38046;49.448;32.074;2023-04-15T13:56:55;6.70;;;5.30;;
52035;SDS011;38046;49.448;32.074;2023-04-15T13:59:22;5.40;;;4.88;;
52035;SDS011;38046;49.448;32.074;2023-04-15T14:01:48;12.18;;;5.55;;
52035;SDS011;38046;49.448;32.074;2023-04-15T14:04:13;7.78;;;5.88;;
52035;SDS011;38046;49.448;32.074;2023-04-15T14:06:39;6.15;;;5.47;;
52035;SDS011;38046;49.448;32.074;2023-04-15T14:09:05;6.57;;;5.68;;
52035;SDS011;38046;49.448;32.074;2023-04-15T14:11:31;7.47;;;6.00;;
52035;SDS011;38046;49.448;32.074;2023-04-15T14:13:59;7.57;;;6.07;;
52035;SDS011;38046;49.448;32.074;2023-04-15T14:16:24;6.85;;;5.38;;
52035;SDS011;38046;49.448;32.074;2023-04-15T14:18:50;7.95;;;6.00;;
52035;SDS011;38046;49.448;32.074;2023-04-15T14:21:16;7.13;;;6.40;;
52035;SDS011;38046;49.448;32.074;2023-04-15T14:23:42;7.90;;;7.05;;
52035;SDS011;38046;49.448;32.074;2023-04-15T14:26:07;11.68;;;7.70;;
52035;SDS011;38046;49.448;32.074;2023-04-15T14:28:33;8.13;;;7.20;;
52035;SDS011;38046;49.448;32.074;2023-04-15T14:30:59;8.80;;;7.88;;
52035;SDS011;38046;49.448;32.074;2023-04-15T14:33:25;8.88;;;7.93;;
52035;SDS011;38046;49.448;32.074;2023-04-15T14:35:50;8.55;;;7.55;;
52035;SDS011;38046;49.448;32.074;2023-04-15T14:38:16;11.88;;;8.00;;
52035;SDS011;38046;49.448;32.074;2023-04-15T14:40:42;10.48;;;7.45;;
52035;SDS011;38046;49.448;32.074;2023-04-15T14:43:07;7.68;;;6.78;;
52035;SDS011;38046;49.448;32.074;2023-04-15T14:45:33;10.00;;;7.65;;
52035;SDS011;38046;49.448;32.074;2023-04-15T14:47:59;10.60;;;7.68;;
52035;SDS011;38046;49.448;32.074;2023-04-15T14:50:25;7.93;;;6.78;;
52035;SDS011;38046;49.448;32.074;2023-04-15T14:52:51;8.68;;;7.22;;
52035;SDS011;38046;49.448;32.074;2023-04-15T14:55:16;8.43;;;7.60;;
52035;SDS011;38046;49.448;32.074;2023-04-15T14:57:42;10.38;;;7.43;;
52035;SDS011;38046;49.448;32.074;2023-04-15T15:00:08;10.82;;;8.10;;